Main page
METAR-TAF:

METAR-TAF

Airports :

Cap Skirring Airport

Cap Skirring, Senegal

latitude: 12-24N, longitude: 016-45W, elevation: 16 m

Current weather observation

The report was made 25 minutes ago, at 03:00 UTC
Wind 4 kt from the West/Northwest
Temperature 27°C
Humidity 84%
Pressure 1012 hPa
Visibility 10 km or more
Broken clouds at a height of 1300 ft

METAR: GOGS 200300Z 30004KT 9999 BKN013 27/24 Q1012

Time: 03:25 (03:25 UTC)

Forecast

The report was made 3 hours and 55 minutes ago, at 23:30 UTC
Forecast valid from 20 at 00 UTC to 20 at 24 UTC
Wind 6 kt from the West
Visibility 10 km or more
Scattered clouds at a height of 1300 ft
Probability 40% :
Temporary
from 20 at 16 UTC to 20 at 20 UTC
Visibility: 4500 m
Broken clouds at a height of 1200 ft
Few clouds at a height of 2000 ft, Cumulonimbus.
thunderstorm, rain

TAF: GOGS 192330Z 2000/2024 28006KT 9999 SCT013 PROB40 TEMPO 2016/2020 4500 TSRA BKN012 FEW020CB

Weather observations and forecasts of more than 4000 airports (METAR and TAF reports).

The available stations are represented by yellow and red dots on the map.

Hover mouse over dot to see the name of the station.

Then click to see weather observations and forecasts.

To change the map : click on the green buttons with a black cross to zoom in, on the green button with a dash to zoom out, or on the green arrows for adjacent maps.


METAR-TAF: